Time;durP1;ratioP1;P1;durP2;ratioP2;P2;SDS_P1;SDS_P2;PMS_P1;PMS_P2;Temp;Humidity;BMP_temperature;BMP_pressure;BME280_temperature;BME280_humidity;BME280_pressure;Samples;Min_cycle;Max_cycle;Signal;HPM_P1;HPM_P2
2022/02/19 00:02:17;;;;;;;7.80;1.67;;;15.10;47.90;;;;;;4989201;28;20442;-79
2022/02/19 00:04:45;;;;;;;7.13;2.27;;;15.10;48.00;;;;;;4989758;28;20473;-79
2022/02/19 00:07:13;;;;;;;8.20;2.10;;;15.10;47.90;;;;;;4993813;28;20473;-80
2022/02/19 00:09:41;;;;;;;9.30;2.40;;;15.10;47.90;;;;;;5010313;28;20461;-80
2022/02/19 00:12:10;;;;;;;8.80;2.60;;;15.10;48.00;;;;;;5007266;28;20477;-80
2022/02/19 00:14:38;;;;;;;10.50;2.40;;;15.00;47.80;;;;;;5015744;28;20559;-80
2022/02/19 00:17:06;;;;;;;5.87;2.10;;;15.00;48.10;;;;;;5018117;28;20539;-79
2022/02/19 00:19:35;;;;;;;13.10;2.20;;;15.00;47.90;;;;;;5018441;28;20444;-80
2022/02/19 00:22:05;;;;;;;8.03;1.90;;;15.00;48.20;;;;;;5018085;28;20444;-81
2022/02/19 00:24:33;;;;;;;5.60;1.87;;;14.90;48.10;;;;;;5015381;28;20493;-81
2022/02/19 00:27:01;;;;;;;11.60;2.70;;;14.90;48.10;;;;;;5007705;28;20457;-81
2022/02/19 00:29:30;;;;;;;7.57;2.30;;;14.90;48.20;;;;;;4997944;28;20520;-81
2022/02/19 00:31:57;;;;;;;9.67;2.13;;;14.90;48.10;;;;;;4998694;28;20564;-81
2022/02/19 00:34:25;;;;;;;4.13;1.70;;;14.90;48.20;;;;;;4998702;28;20456;-81
2022/02/19 00:36:55;;;;;;;7.97;2.30;;;14.80;48.20;;;;;;4998408;28;20485;-80
2022/02/19 00:39:23;;;;;;;6.70;2.30;;;14.90;48.40;;;;;;5002965;28;20445;-80
2022/02/19 00:41:51;;;;;;;4.87;2.00;;;14.80;48.20;;;;;;5001011;28;20429;-81
2022/02/19 00:44:19;;;;;;;5.70;2.17;;;14.80;48.30;;;;;;4998327;28;20460;-81
2022/02/19 00:46:47;;;;;;;4.90;1.53;;;14.80;48.40;;;;;;4998017;28;20465;-81
2022/02/19 00:49:15;;;;;;;8.27;2.20;;;14.80;48.50;;;;;;4997782;28;20545;-81
2022/02/19 00:51:43;;;;;;;7.63;1.93;;;14.80;48.40;;;;;;4998629;28;20469;-80
2022/02/19 00:54:12;;;;;;;10.03;2.10;;;14.70;48.50;;;;;;4993456;28;20996;-80
2022/02/19 00:56:40;;;;;;;3.90;1.83;;;14.80;48.50;;;;;;4979318;28;20435;-80
2022/02/19 00:59:08;;;;;;;7.80;2.13;;;14.70;48.50;;;;;;4978833;28;20505;-81
2022/02/19 01:01:37;;;;;;;7.60;2.30;;;14.80;48.60;;;;;;4978021;28;20477;-81
2022/02/19 01:04:05;;;;;;;9.20;2.30;;;14.80;48.60;;;;;;4978187;28;20454;-81
2022/02/19 01:06:44;;;;;;;7.63;2.03;;;14.80;48.60;;;;;;4978150;28;20493;-81
2022/02/19 01:09:20;;;;;;;6.77;2.40;;;14.80;48.30;;;;;;4984304;28;20426;-79
2022/02/19 01:11:47;;;;;;;8.27;2.10;;;14.80;48.40;;;;;;5002478;28;20461;-80
2022/02/19 01:14:15;;;;;;;6.30;2.30;;;14.80;48.40;;;;;;5014200;28;20449;-79
2022/02/19 01:16:43;;;;;;;6.57;2.00;;;14.80;48.60;;;;;;5013118;28;20445;-80
2022/02/19 01:19:11;;;;;;;6.93;1.97;;;14.80;48.80;;;;;;5005457;28;20433;-79
2022/02/19 01:21:39;;;;;;;9.40;1.97;;;14.70;48.40;;;;;;5004700;28;20446;-79
2022/02/19 01:24:07;;;;;;;8.10;2.30;;;14.70;48.60;;;;;;5004149;28;20476;-79
2022/02/19 01:26:36;;;;;;;5.47;2.03;;;14.60;48.70;;;;;;4999644;28;20485;-79
2022/02/19 01:29:05;;;;;;;10.57;2.40;;;14.60;48.80;;;;;;5000741;28;20492;-79
2022/02/19 01:31:33;;;;;;;15.47;2.30;;;14.60;49.00;;;;;;5000279;28;20468;-79
2022/02/19 01:34:00;;;;;;;13.00;2.47;;;14.60;49.20;;;;;;5000724;28;20473;-79
2022/02/19 01:36:29;;;;;;;5.13;2.03;;;14.60;49.40;;;;;;5001157;28;20516;-79
2022/02/19 01:38:57;;;;;;;5.83;2.17;;;14.50;49.10;;;;;;5000205;28;20441;-79
2022/02/19 01:41:25;;;;;;;7.67;2.03;;;14.50;49.20;;;;;;5000784;28;20437;-79
2022/02/19 01:43:54;;;;;;;8.87;2.03;;;14.50;49.40;;;;;;4999145;28;20812;-80
2022/02/19 01:46:22;;;;;;;5.10;2.00;;;14.50;49.40;;;;;;4998346;28;20520;-79
2022/02/19 01:48:50;;;;;;;8.47;2.23;;;14.50;49.40;;;;;;5003849;28;20449;-79
2022/02/19 01:51:19;;;;;;;4.87;1.80;;;14.50;49.60;;;;;;5004392;28;20449;-78
2022/02/19 01:53:47;;;;;;;6.70;2.17;;;14.40;49.50;;;;;;5004456;28;20437;-78
2022/02/19 01:56:15;;;;;;;6.93;1.87;;;14.40;49.70;;;;;;5004227;28;20472;-79
2022/02/19 01:58:42;;;;;;;6.40;1.70;;;14.40;49.70;;;;;;4998854;28;20552;-79
2022/02/19 02:01:12;;;;;;;3.00;1.70;;;14.40;49.70;;;;;;4998689;28;20438;-79
2022/02/19 02:03:39;;;;;;;5.63;1.93;;;14.40;49.80;;;;;;4994272;28;20461;-79
2022/02/19 02:06:07;;;;;;;6.43;1.83;;;14.40;50.00;;;;;;4977654;28;20485;-79
2022/02/19 02:08:35;;;;;;;4.50;1.67;;;14.40;49.90;;;;;;4978199;28;20474;-79
2022/02/19 02:11:03;;;;;;;8.60;2.10;;;14.30;50.00;;;;;;4977986;28;20434;-78
2022/02/19 02:13:31;;;;;;;6.63;2.10;;;14.40;50.00;;;;;;4977508;28;20565;-78
2022/02/19 02:15:59;;;;;;;5.03;1.60;;;14.40;50.00;;;;;;4977815;28;20497;-79
2022/02/19 02:18:28;;;;;;;5.13;2.10;;;14.40;50.00;;;;;;4978487;28;20485;-79
2022/02/19 02:20:56;;;;;;;5.40;2.00;;;14.40;50.00;;;;;;4995585;28;20489;-79
2022/02/19 02:23:25;;;;;;;3.00;1.50;;;14.40;50.00;;;;;;5003995;28;20437;-79
2022/02/19 02:25:53;;;;;;;4.90;1.87;;;14.40;50.00;;;;;;5003476;28;20493;-79
2022/02/19 02:28:21;;;;;;;6.10;2.43;;;14.40;50.20;;;;;;5001801;28;20517;-81
2022/02/19 02:30:49;;;;;;;6.67;2.10;;;14.40;50.00;;;;;;4997598;28;20450;-79
2022/02/19 02:33:17;;;;;;;3.43;1.30;;;14.40;50.10;;;;;;4998661;28;20508;-79
2022/02/19 02:35:47;;;;;;;4.10;1.87;;;14.40;50.10;;;;;;4997413;28;20473;-79
2022/02/19 02:38:15;;;;;;;9.73;2.20;;;14.40;50.00;;;;;;4997353;28;20437;-79
2022/02/19 02:40:44;;;;;;;11.80;2.63;;;14.30;50.10;;;;;;4997370;28;20456;-79
2022/02/19 02:43:12;;;;;;;7.10;1.60;;;14.40;50.30;;;;;;4996958;28;20468;-79
2022/02/19 02:45:40;;;;;;;6.80;1.93;;;14.40;50.20;;;;;;4997816;28;20511;-78
2022/02/19 02:48:21;;;;;;;4.20;1.93;;;14.40;50.20;;;;;;4997822;28;20441;-78
2022/02/19 02:50:49;;;;;;;5.07;1.73;;;14.40;50.30;;;;;;4996261;28;20453;-78
2022/02/19 02:53:36;;;;;;;4.93;2.00;;;14.40;50.20;;;;;;4996777;28;20484;-78
2022/02/19 02:56:06;;;;;;;7.40;1.70;;;14.30;50.30;;;;;;4998906;28;20465;-78
2022/02/19 02:58:34;;;;;;;8.27;2.03;;;14.30;50.30;;;;;;4999384;28;20433;-78
2022/02/19 03:01:02;;;;;;;5.23;1.70;;;14.30;50.40;;;;;;4999590;28;20447;-79
2022/02/19 03:03:30;;;;;;;5.50;1.40;;;14.30;50.50;;;;;;4997954;28;20482;-78
2022/02/19 03:05:58;;;;;;;6.53;1.70;;;14.30;50.40;;;;;;4999645;28;21008;-78
2022/02/19 03:08:25;;;;;;;7.70;1.70;;;14.30;50.50;;;;;;5001027;28;20441;-79
2022/02/19 03:10:53;;;;;;;5.67;1.70;;;14.30;50.40;;;;;;5001194;28;20548;-79
2022/02/19 03:13:22;;;;;;;5.13;1.33;;;14.30;50.50;;;;;;4995659;28;20555;-80
2022/02/19 03:15:50;;;;;;;3.40;1.57;;;14.30;50.40;;;;;;4999751;28;20492;-79
2022/02/19 03:18:18;;;;;;;5.37;1.70;;;14.30;50.50;;;;;;4999729;28;20453;-78
2022/02/19 03:20:47;;;;;;;3.50;1.20;;;14.30;50.40;;;;;;4998326;28;20445;-79
2022/02/19 03:23:15;;;;;;;5.10;1.73;;;14.40;50.60;;;;;;4996697;28;20438;-79
2022/02/19 03:25:43;;;;;;;2.60;1.40;;;14.40;50.50;;;;;;4998208;28;20496;-79
2022/02/19 03:28:10;;;;;;;2.40;1.30;;;14.30;50.40;;;;;;4997967;28;20472;-79
2022/02/19 03:30:40;;;;;;;3.07;1.20;;;14.30;50.50;;;;;;4998224;28;20425;-79
2022/02/19 03:33:08;;;;;;;3.83;1.70;;;14.30;50.50;;;;;;5001508;28;20484;-78
2022/02/19 03:35:36;;;;;;;3.17;1.40;;;14.30;50.40;;;;;;5000547;28;20824;-79
2022/02/19 03:38:04;;;;;;;3.90;1.20;;;14.30;50.50;;;;;;5001314;28;20450;-79
2022/02/19 03:40:32;;;;;;;5.30;1.63;;;14.30;50.50;;;;;;5001735;28;20445;-79
2022/02/19 03:43:01;;;;;;;3.93;1.30;;;14.40;50.60;;;;;;5001779;28;20460;-78
2022/02/19 03:45:37;;;;;;;3.60;1.33;;;14.30;50.50;;;;;;5001261;28;20495;-79
2022/02/19 03:48:07;;;;;;;4.10;1.30;;;14.30;50.50;;;;;;5001856;28;20448;-79
2022/02/19 03:50:35;;;;;;;4.00;1.30;;;14.30;50.60;;;;;;5000401;28;20433;-78
2022/02/19 03:53:03;;;;;;;4.13;1.50;;;14.30;50.60;;;;;;4997790;28;20477;-79
2022/02/19 03:55:30;;;;;;;2.43;1.37;;;14.30;50.60;;;;;;5000967;28;20508;-78
2022/02/19 03:57:58;;;;;;;1.93;1.70;;;14.30;50.50;;;;;;5000299;28;20453;-79
2022/02/19 04:00:26;;;;;;;2.97;1.07;;;14.30;50.40;;;;;;4999039;28;20476;-79
2022/02/19 04:02:54;;;;;;;2.90;1.33;;;14.40;50.70;;;;;;5003676;28;20480;-78
2022/02/19 04:05:23;;;;;;;2.67;1.00;;;14.30;50.60;;;;;;5006447;28;20496;-78
2022/02/19 04:07:51;;;;;;;2.70;1.10;;;14.30;50.50;;;;;;5002547;28;20476;-79
2022/02/19 04:10:19;;;;;;;3.73;1.33;;;14.30;51.20;;;;;;4997802;28;20924;-80
2022/02/19 04:12:47;;;;;;;4.60;1.60;;;14.30;50.80;;;;;;4999496;28;20464;-80
2022/02/19 04:15:15;;;;;;;2.30;1.03;;;14.40;50.60;;;;;;4999435;28;20492;-80
2022/02/19 04:17:43;;;;;;;3.47;1.10;;;14.40;50.70;;;;;;4999314;28;20453;-79
2022/02/19 04:20:11;;;;;;;3.10;1.10;;;14.30;50.60;;;;;;4999137;28;20445;-79
2022/02/19 04:22:41;;;;;;;1.10;0.80;;;14.30;50.60;;;;;;4998525;28;20456;-79
2022/02/19 04:25:09;;;;;;;1.43;1.10;;;14.30;50.80;;;;;;4998894;28;20472;-79
2022/02/19 04:27:37;;;;;;;3.30;1.37;;;14.30;50.70;;;;;;4982567;28;20477;-80
2022/02/19 04:30:07;;;;;;;3.63;1.03;;;14.30;50.70;;;;;;4991149;28;20473;-79
2022/02/19 04:32:34;;;;;;;1.40;0.90;;;14.30;50.60;;;;;;4999484;28;20445;-80
2022/02/19 04:35:02;;;;;;;2.30;1.03;;;14.30;50.70;;;;;;4998786;28;20464;-79
2022/02/19 04:37:30;;;;;;;3.83;1.20;;;14.30;50.60;;;;;;4999233;28;20456;-80
2022/02/19 04:40:00;;;;;;;3.20;0.93;;;14.30;50.70;;;;;;4998375;28;20473;-79
2022/02/19 04:42:28;;;;;;;2.63;1.10;;;14.30;50.60;;;;;;4998333;28;20504;-80
2022/02/19 04:44:55;;;;;;;1.53;0.90;;;14.30;50.60;;;;;;4997640;28;20564;-80
2022/02/19 04:47:23;;;;;;;3.73;1.27;;;14.30;50.60;;;;;;4978231;28;20937;-80
2022/02/19 04:49:51;;;;;;;2.60;1.00;;;14.30;50.70;;;;;;4978772;28;20466;-80
2022/02/19 04:52:19;;;;;;;3.93;1.03;;;14.30;50.70;;;;;;4978331;28;20465;-80
2022/02/19 04:54:47;;;;;;;1.87;1.00;;;14.30;50.70;;;;;;4978194;28;20577;-80
2022/02/19 04:57:17;;;;;;;2.50;1.10;;;14.30;50.70;;;;;;4978871;28;20443;-80
2022/02/19 04:59:45;;;;;;;3.70;0.97;;;14.30;50.70;;;;;;4978795;28;20450;-80
2022/02/19 05:02:13;;;;;;;1.43;0.90;;;14.30;50.70;;;;;;4987925;28;20485;-80
2022/02/19 05:04:40;;;;;;;1.40;0.70;;;14.30;50.70;;;;;;4997940;28;20481;-80
2022/02/19 05:07:08;;;;;;;2.80;1.00;;;14.30;50.80;;;;;;4998103;28;20453;-80
2022/02/19 05:09:36;;;;;;;3.00;1.03;;;14.30;50.80;;;;;;4998273;28;20472;-80
2022/02/19 05:12:05;;;;;;;2.90;1.40;;;14.30;50.80;;;;;;4998076;28;20465;-80
2022/02/19 05:14:34;;;;;;;1.57;0.90;;;14.30;50.80;;;;;;4997200;28;20539;-80
2022/02/19 05:17:02;;;;;;;2.37;0.97;;;14.30;50.90;;;;;;4997727;28;20468;-80
2022/02/19 05:19:29;;;;;;;1.17;0.80;;;14.30;50.90;;;;;;4978673;28;20477;-80
2022/02/19 05:21:57;;;;;;;3.47;1.10;;;14.30;50.80;;;;;;4978454;28;20478;-80
2022/02/19 05:24:25;;;;;;;4.77;1.37;;;14.30;50.90;;;;;;4977839;28;20484;-80
2022/02/19 05:26:53;;;;;;;2.93;0.90;;;14.30;50.80;;;;;;4978101;28;20508;-80
2022/02/19 05:29:21;;;;;;;4.03;1.10;;;14.30;50.90;;;;;;4977951;28;20521;-80
2022/02/19 05:31:50;;;;;;;1.07;0.97;;;14.30;50.80;;;;;;4978265;28;20485;-80
2022/02/19 05:34:18;;;;;;;1.87;1.00;;;14.30;50.90;;;;;;4978092;28;20478;-80
2022/02/19 05:36:46;;;;;;;1.00;0.80;;;14.30;50.80;;;;;;4978242;28;20529;-80
2022/02/19 05:39:14;;;;;;;4.30;0.83;;;14.30;50.90;;;;;;4978239;28;20434;-80
2022/02/19 05:41:42;;;;;;;2.10;1.00;;;14.30;50.90;;;;;;4977911;28;20430;-80
2022/02/19 05:44:10;;;;;;;2.03;1.20;;;14.40;51.00;;;;;;4978033;28;20430;-80
2022/02/19 05:46:38;;;;;;;1.17;1.10;;;14.30;50.90;;;;;;4977289;28;20454;-80
2022/02/19 05:49:08;;;;;;;1.80;0.90;;;14.40;51.10;;;;;;4977652;28;20497;-80
2022/02/19 05:51:36;;;;;;;1.47;1.00;;;14.40;51.60;;;;;;4981239;28;20465;-80
2022/02/19 05:54:04;;;;;;;2.90;1.07;;;14.40;51.00;;;;;;4999116;28;20483;-80
2022/02/19 05:56:32;;;;;;;2.13;1.00;;;14.30;50.90;;;;;;4998716;28;20453;-80
2022/02/19 05:59:00;;;;;;;2.10;0.90;;;14.30;50.90;;;;;;4996982;28;20433;-80
2022/02/19 06:01:28;;;;;;;1.30;1.00;;;14.30;50.90;;;;;;4996818;28;20453;-80
2022/02/19 06:03:56;;;;;;;3.03;1.13;;;14.40;51.00;;;;;;4996546;28;20438;-80
2022/02/19 06:06:25;;;;;;;2.70;1.10;;;14.40;51.00;;;;;;4996657;28;20527;-80
2022/02/19 06:08:53;;;;;;;3.50;0.90;;;14.30;50.90;;;;;;4997127;28;20507;-80
2022/02/19 06:11:21;;;;;;;1.70;1.00;;;14.30;51.00;;;;;;4991707;28;20520;-80
2022/02/19 06:13:49;;;;;;;2.90;1.07;;;14.30;51.00;;;;;;4997546;28;20465;-80
2022/02/19 06:16:17;;;;;;;2.93;1.10;;;14.30;50.80;;;;;;4997185;28;20453;-80
2022/02/19 06:18:46;;;;;;;1.90;1.00;;;14.30;51.00;;;;;;4996673;28;20458;-80
2022/02/19 06:21:14;;;;;;;0.87;0.80;;;14.30;51.10;;;;;;4997039;28;20480;-80
2022/02/19 06:23:43;;;;;;;1.10;1.00;;;14.20;51.00;;;;;;5000211;28;20472;-80
2022/02/19 06:26:11;;;;;;;1.63;0.90;;;14.20;51.00;;;;;;4999662;28;20508;-80
2022/02/19 06:28:39;;;;;;;1.07;0.97;;;14.20;51.00;;;;;;5000872;28;20504;-80
2022/02/19 06:31:06;;;;;;;2.63;0.80;;;14.20;51.20;;;;;;4981489;28;20442;-80
2022/02/19 06:33:34;;;;;;;1.00;0.80;;;14.10;51.10;;;;;;4980932;28;20429;-80
2022/02/19 06:36:02;;;;;;;1.10;1.00;;;14.10;51.10;;;;;;4981336;28;20458;-80
2022/02/19 06:38:30;;;;;;;4.90;0.90;;;14.10;51.20;;;;;;4980401;28;20462;-80
2022/02/19 06:40:59;;;;;;;3.17;1.10;;;14.10;51.30;;;;;;4980830;28;20450;-80
2022/02/19 06:43:28;;;;;;;1.70;0.87;;;14.10;51.30;;;;;;4979546;28;20438;-80
2022/02/19 06:45:56;;;;;;;1.80;0.90;;;14.00;51.20;;;;;;4980842;28;20470;-80
2022/02/19 06:48:24;;;;;;;1.93;0.87;;;14.00;51.40;;;;;;4985429;28;20426;-80
2022/02/19 06:50:53;;;;;;;1.60;0.90;;;14.00;51.40;;;;;;5000100;28;20429;-80
2022/02/19 06:53:21;;;;;;;7.80;1.17;;;14.00;51.50;;;;;;5000310;28;20449;-80
2022/02/19 06:55:49;;;;;;;1.17;0.70;;;13.90;51.30;;;;;;4999851;28;20492;-80
2022/02/19 06:58:18;;;;;;;0.80;0.70;;;13.90;51.40;;;;;;5001028;28;20452;-80
2022/02/19 07:00:51;;;;;;;1.70;0.80;;;13.90;51.50;;;;;;5000238;28;20468;-80
2022/02/19 07:03:19;;;;;;;1.20;0.90;;;13.80;51.30;;;;;;4994213;28;20857;-80
2022/02/19 07:05:51;;;;;;;1.50;0.80;;;13.80;51.60;;;;;;4999833;28;20493;-80
2022/02/19 07:08:20;;;;;;;3.23;1.23;;;13.80;51.60;;;;;;4999793;28;20877;-80
2022/02/19 07:10:48;;;;;;;2.33;0.97;;;13.70;51.60;;;;;;5000103;28;20465;-80
2022/02/19 07:13:16;;;;;;;2.30;0.90;;;13.70;51.70;;;;;;5006075;28;20429;-80
2022/02/19 07:15:45;;;;;;;1.10;1.10;;;13.70;51.80;;;;;;5008237;28;20508;-80
2022/02/19 07:18:13;;;;;;;1.77;0.80;;;13.70;51.80;;;;;;5008483;28;20476;-80
2022/02/19 07:20:41;;;;;;;1.00;0.90;;;13.70;51.90;;;;;;5006161;28;20460;-80
2022/02/19 07:23:09;;;;;;;0.93;0.80;;;13.70;51.90;;;;;;5008053;28;20438;-80
2022/02/19 07:25:37;;;;;;;1.10;0.70;;;13.70;51.90;;;;;;5006894;28;20561;-81
2022/02/19 07:28:06;;;;;;;1.77;1.10;;;13.80;51.90;;;;;;4995940;28;20476;-81
2022/02/19 07:30:38;;;;;;;1.30;0.70;;;13.70;51.90;;;;;;4995956;28;20441;-81
2022/02/19 07:33:08;;;;;;;1.17;1.00;;;13.70;52.10;;;;;;4998359;28;20493;-80
2022/02/19 07:35:35;;;;;;;1.00;0.80;;;13.70;52.00;;;;;;4999018;28;20517;-80
2022/02/19 07:38:04;;;;;;;2.03;0.90;;;13.70;52.00;;;;;;5001733;28;20441;-80
2022/02/19 07:40:32;;;;;;;1.63;1.10;;;13.70;52.10;;;;;;5004151;28;20426;-80
2022/02/19 07:43:02;;;;;;;1.07;0.90;;;13.70;52.00;;;;;;5003665;28;20433;-80
2022/02/19 07:45:30;;;;;;;2.97;1.17;;;13.70;52.00;;;;;;5004054;28;20456;-80
2022/02/19 07:47:58;;;;;;;2.40;1.13;;;13.80;52.10;;;;;;5003039;28;20452;-80
2022/02/19 07:58:43;;;;;;;3.67;1.20;;;13.90;52.00;;;;;;5016586;28;20540;-80
2022/02/19 08:01:12;;;;;;;1.93;1.20;;;14.00;52.00;;;;;;5006690;28;20429;-80
2022/02/19 08:03:40;;;;;;;1.87;0.80;;;14.00;52.00;;;;;;5005423;28;20460;-80
2022/02/19 08:06:10;;;;;;;3.60;1.10;;;14.10;51.70;;;;;;4999430;28;20489;-81
2022/02/19 08:08:38;;;;;;;4.20;1.03;;;14.10;51.80;;;;;;4998933;28;20524;-81
2022/02/19 08:11:06;;;;;;;2.03;1.17;;;14.20;51.60;;;;;;4998725;28;20518;-81
2022/02/19 08:13:34;;;;;;;1.20;1.00;;;14.20;51.60;;;;;;5003674;28;20477;-80
2022/02/19 08:16:02;;;;;;;1.73;1.50;;;14.30;51.70;;;;;;5006257;28;20519;-80
2022/02/19 08:18:31;;;;;;;2.50;1.23;;;14.40;51.60;;;;;;5005254;28;20991;-80
2022/02/19 08:20:59;;;;;;;1.30;0.80;;;14.50;51.50;;;;;;5006257;28;20449;-80
2022/02/19 08:23:28;;;;;;;2.50;1.13;;;14.60;51.30;;;;;;5004380;28;20457;-80
2022/02/19 08:25:56;;;;;;;2.47;1.40;;;14.70;51.30;;;;;;5004471;28;20539;-80
2022/02/19 08:28:24;;;;;;;3.50;1.30;;;14.70;51.10;;;;;;5004055;28;20472;-80
2022/02/19 08:30:52;;;;;;;8.23;1.53;;;14.70;51.20;;;;;;5005407;28;20437;-79
2022/02/19 08:33:20;;;;;;;2.30;1.20;;;14.70;50.90;;;;;;5010882;28;20464;-80
2022/02/19 08:35:50;;;;;;;3.30;1.40;;;14.70;51.10;;;;;;5010593;28;20477;-79
2022/02/19 08:38:18;;;;;;;6.13;1.47;;;14.70;51.20;;;;;;5012098;28;20421;-79
2022/02/19 08:40:47;;;;;;;3.97;1.50;;;14.70;50.90;;;;;;5012510;28;20449;-79
2022/02/19 08:43:15;;;;;;;4.20;1.50;;;14.80;51.10;;;;;;5012109;28;20433;-80
2022/02/19 08:45:43;;;;;;;6.13;1.63;;;14.80;50.90;;;;;;5011861;28;20461;-79
2022/02/19 08:48:11;;;;;;;2.50;1.20;;;14.80;51.10;;;;;;5011498;28;20454;-80
2022/02/19 08:50:40;;;;;;;7.23;1.77;;;14.80;51.70;;;;;;5011938;28;20460;-80
2022/02/19 08:53:09;;;;;;;4.70;1.50;;;14.90;50.90;;;;;;5013036;28;20441;-80
2022/02/19 08:55:37;;;;;;;3.47;1.40;;;14.90;51.00;;;;;;5009184;28;20535;-80
2022/02/19 08:58:06;;;;;;;7.93;1.70;;;15.00;51.50;;;;;;5004180;28;20430;-80
2022/02/19 09:00:34;;;;;;;3.20;1.30;;;15.00;50.70;;;;;;5003813;28;20430;-81
2022/02/19 09:03:02;;;;;;;5.90;1.20;;;15.00;50.60;;;;;;5003582;28;20433;-81
2022/02/19 09:05:31;;;;;;;6.03;1.43;;;15.00;50.60;;;;;;4997445;28;20473;-80
2022/02/19 09:07:59;;;;;;;4.33;1.30;;;15.00;50.60;;;;;;5004017;28;20462;-80
2022/02/19 09:10:27;;;;;;;4.23;1.50;;;14.90;50.60;;;;;;5002929;28;20450;-81
2022/02/19 09:12:54;;;;;;;3.23;2.03;;;15.00;50.80;;;;;;4998632;28;20496;-81
2022/02/19 09:15:25;;;;;;;4.03;1.37;;;15.00;50.80;;;;;;4998112;28;20473;-81
2022/02/19 09:17:53;;;;;;;3.90;1.63;;;15.00;51.40;;;;;;4998479;28;20465;-81
2022/02/19 09:20:21;;;;;;;6.00;1.70;;;15.20;51.10;;;;;;4997378;28;20446;-81
2022/02/19 09:22:50;;;;;;;7.53;1.93;;;15.30;50.70;;;;;;4997927;28;20448;-81
2022/02/19 09:25:17;;;;;;;2.90;1.57;;;15.40;50.60;;;;;;4997831;28;20457;-81
2022/02/19 09:27:46;;;;;;;7.33;1.77;;;15.50;50.50;;;;;;4997443;28;20504;-81
2022/02/19 09:30:13;;;;;;;6.73;1.60;;;15.50;50.30;;;;;;4997906;28;20445;-81
2022/02/19 09:32:43;;;;;;;5.77;1.50;;;15.60;50.50;;;;;;4998009;28;20461;-81
2022/02/19 09:35:12;;;;;;;4.73;2.33;;;15.70;50.70;;;;;;5001458;28;20512;-81
2022/02/19 09:37:40;;;;;;;2.70;1.40;;;15.80;50.20;;;;;;5011175;28;20468;-80
2022/02/19 09:40:09;;;;;;;4.70;1.50;;;15.90;50.10;;;;;;4992451;28;20438;-80
2022/02/19 09:42:37;;;;;;;5.87;1.90;;;15.90;50.10;;;;;;4992630;28;20478;-80
2022/02/19 09:45:07;;;;;;;10.27;2.37;;;15.90;50.10;;;;;;4991709;28;20497;-80
2022/02/19 09:47:36;;;;;;;2.33;1.53;;;16.00;50.10;;;;;;4992411;28;20458;-80
2022/02/19 09:50:06;;;;;;;3.90;1.50;;;16.10;50.20;;;;;;4986194;28;20456;-81
2022/02/19 09:52:37;;;;;;;6.17;1.80;;;16.20;50.30;;;;;;4985105;28;20457;-81
2022/02/19 09:55:06;;;;;;;2.20;1.50;;;16.30;50.10;;;;;;4998686;28;20458;-81
2022/02/19 09:57:34;;;;;;;5.17;1.80;;;16.50;50.20;;;;;;5001977;28;20477;-80
2022/02/19 10:00:02;;;;;;;6.03;1.60;;;16.70;49.80;;;;;;5002851;28;20437;-82
2022/02/19 10:02:35;;;;;;;5.83;1.90;;;17.00;49.70;;;;;;5001949;28;20514;-80
2022/02/19 10:05:18;;;;;;;4.30;1.93;;;17.10;49.10;;;;;;5000805;28;20447;-80
2022/02/19 10:07:50;;;;;;;7.37;2.03;;;17.10;48.60;;;;;;5003494;28;20441;-79
2022/02/19 10:10:25;;;;;;;5.53;1.63;;;17.00;48.80;;;;;;5004892;28;20512;-80
2022/02/19 10:12:53;;;;;;;6.57;1.70;;;16.90;48.90;;;;;;5004869;28;20432;-80
2022/02/19 10:15:21;;;;;;;3.77;1.80;;;16.80;49.10;;;;;;5003973;28;21003;-79
2022/02/19 10:17:51;;;;;;;6.30;2.00;;;16.70;49.20;;;;;;5002255;28;20491;-79
2022/02/19 10:20:20;;;;;;;4.07;1.63;;;16.60;49.10;;;;;;5002348;28;20454;-81
2022/02/19 10:22:48;;;;;;;2.97;1.80;;;16.60;49.50;;;;;;4998094;28;20429;-80
2022/02/19 10:25:21;;;;;;;3.50;1.70;;;16.50;49.50;;;;;;4996635;28;20520;-80
2022/02/19 10:27:51;;;;;;;4.80;2.10;;;16.30;49.30;;;;;;4997112;28;20460;-80
2022/02/19 10:30:20;;;;;;;8.90;2.00;;;16.20;49.60;;;;;;4997850;28;20438;-80
2022/02/19 10:32:49;;;;;;;2.53;1.60;;;16.10;50.00;;;;;;5004471;28;20438;-79
2022/02/19 10:35:17;;;;;;;5.30;1.70;;;16.00;50.30;;;;;;5009214;28;20469;-80
2022/02/19 10:37:47;;;;;;;6.37;1.70;;;16.10;50.60;;;;;;5006591;28;20472;-81
2022/02/19 10:40:40;;;;;;;3.03;1.43;;;16.00;50.60;;;;;;5002336;28;20469;-80
2022/02/19 10:43:08;;;;;;;6.13;2.00;;;16.20;51.50;;;;;;4987583;28;20481;-81
2022/02/19 10:45:38;;;;;;;6.73;2.03;;;16.20;50.70;;;;;;4988288;28;20461;-80
2022/02/19 10:48:14;;;;;;;5.63;1.70;;;16.20;50.70;;;;;;4998078;28;20433;-80
2022/02/19 10:50:42;;;;;;;5.50;1.87;;;16.20;50.90;;;;;;4997349;28;20448;-80
2022/02/19 10:53:19;;;;;;;2.43;1.37;;;16.30;50.80;;;;;;4997146;28;20441;-80
2022/02/19 10:55:48;;;;;;;5.13;1.80;;;16.30;50.70;;;;;;4999002;28;20457;-81
2022/02/19 10:58:19;;;;;;;12.30;3.50;;;16.20;51.10;;;;;;5001866;28;20496;-80
2022/02/19 11:00:47;;;;;;;15.20;4.40;;;17.20;57.90;;;;;;5001233;28;20484;-81
2022/02/19 11:03:16;;;;;;;19.03;5.23;;;17.90;58.80;;;;;;5003200;28;20445;-81
2022/02/19 11:05:44;;;;;;;18.93;4.40;;;18.40;59.10;;;;;;5001048;28;20976;-79
2022/02/19 11:08:13;;;;;;;13.27;3.90;;;18.80;59.20;;;;;;4998634;28;20783;-81
2022/02/19 11:10:41;;;;;;;20.57;3.57;;;18.30;55.90;;;;;;4998434;28;20445;-82
2022/02/19 11:13:09;;;;;;;13.50;2.57;;;16.90;56.10;;;;;;4998890;28;20476;-82
2022/02/19 11:15:37;;;;;;;9.20;2.60;;;15.80;52.20;;;;;;4997681;28;20476;-84
2022/02/19 11:18:06;;;;;;;10.83;2.47;;;14.10;53.20;;;;;;4996364;28;20504;-82
2022/02/19 11:20:34;;;;;;;7.90;1.67;;;13.80;54.70;;;;;;4996655;28;20492;-83
2022/02/19 11:23:02;;;;;;;12.83;2.00;;;13.60;54.50;;;;;;4997788;28;20503;-86
2022/02/19 11:25:31;;;;;;;9.30;1.93;;;13.20;55.00;;;;;;4997123;28;20469;-82
2022/02/19 11:28:01;;;;;;;9.10;2.93;;;13.80;55.80;;;;;;4996893;28;20885;-84
2022/02/19 11:30:30;;;;;;;14.77;2.30;;;14.00;53.80;;;;;;4996662;28;20449;-83
2022/02/19 11:32:59;;;;;;;6.90;2.50;;;13.40;52.70;;;;;;4997268;28;20457;-82
2022/02/19 11:35:34;;;;;;;9.13;2.30;;;13.30;52.80;;;;;;4995264;28;20477;-82
2022/02/19 11:38:02;;;;;;;11.50;2.50;;;12.60;52.00;;;;;;4996863;28;20560;-82
2022/02/19 11:40:46;;;;;;;13.63;2.63;;;12.60;53.00;;;;;;4997242;28;20433;-83
2022/02/19 11:43:32;;;;;;;11.63;2.20;;;12.50;52.20;;;;;;4998467;28;20445;-83
2022/02/19 11:46:02;;;;;;;13.83;2.43;;;12.80;52.60;;;;;;4998422;28;20472;-82
2022/02/19 11:48:30;;;;;;;15.73;3.00;;;12.80;52.10;;;;;;4998229;28;20457;-82
2022/02/19 11:51:16;;;;;;;17.50;2.07;;;12.80;51.20;;;;;;4989340;28;20469;-79
2022/02/19 11:53:44;;;;;;;11.13;2.23;;;13.60;55.30;;;;;;4995290;28;20473;-80
2022/02/19 11:56:27;;;;;;;12.60;2.60;;;16.00;54.90;;;;;;4995594;28;20497;-80
2022/02/19 11:58:57;;;;;;;10.67;2.67;;;18.50;51.80;;;;;;4997098;28;20418;-82
2022/02/19 12:01:25;;;;;;;15.30;3.50;;;20.20;49.90;;;;;;4998796;28;20445;-81
2022/02/19 12:04:13;;;;;;;11.97;3.50;;;21.80;51.10;;;;;;4997455;28;20488;-82
2022/02/19 12:06:41;;;;;;;24.83;3.50;;;22.90;48.70;;;;;;4996438;28;20441;-82
2022/02/19 12:09:16;;;;;;;15.00;3.40;;;23.00;46.60;;;;;;4984145;28;20480;-82
2022/02/19 12:12:03;;;;;;;12.87;3.10;;;24.00;47.80;;;;;;4996543;28;20428;-82
2022/02/19 12:15:01;;;;;;;13.43;3.40;;;25.00;46.40;;;;;;4995969;28;20470;-84
2022/02/19 12:17:44;;;;;;;18.33;3.00;;;24.00;40.10;;;;;;4995926;28;20471;-84
2022/02/19 12:20:29;;;;;;;14.30;2.90;;;22.10;41.30;;;;;;4994304;28;20440;-84
2022/02/19 12:23:01;;;;;;;11.87;2.93;;;20.20;41.00;;;;;;4996890;28;20425;-86
2022/02/19 12:26:01;;;;;;;10.77;2.77;;;20.70;42.60;;;;;;5001741;28;20510;-84
2022/02/19 12:28:45;;;;;;;12.03;2.77;;;20.00;42.40;;;;;;4999891;28;20447;-82
2022/02/19 12:31:25;;;;;;;6.20;2.50;;;19.70;42.10;;;;;;4980225;28;20429;-83
2022/02/19 12:33:53;;;;;;;8.77;2.27;;;19.30;41.50;;;;;;4989160;28;20426;-83
2022/02/19 12:36:22;;;;;;;10.20;2.43;;;19.70;42.50;;;;;;5004970;28;20461;-82
2022/02/19 12:38:52;;;;;;;10.47;2.90;;;20.00;41.90;;;;;;4995391;28;20505;-80
2022/02/19 12:41:21;;;;;;;11.20;2.67;;;20.00;42.30;;;;;;4992991;28;20429;-81
2022/02/19 12:44:05;;;;;;;8.93;2.53;;;19.90;42.30;;;;;;4999148;28;20479;-82
2022/02/19 12:46:34;;;;;;;9.30;2.77;;;20.00;42.80;;;;;;5004818;28;20450;-81
2022/02/19 12:49:02;;;;;;;10.13;2.50;;;21.30;41.60;;;;;;4995405;28;20540;-82
2022/02/19 12:51:30;;;;;;;10.80;2.93;;;22.40;42.20;;;;;;4992755;28;20516;-83
2022/02/19 12:53:58;;;;;;;4.90;1.90;;;23.60;40.50;;;;;;4996103;28;20419;-82
2022/02/19 12:56:29;;;;;;;6.90;2.40;;;24.60;39.50;;;;;;4991678;28;20436;-82
2022/02/19 12:58:57;;;;;;;6.80;2.20;;;25.20;38.00;;;;;;4993871;28;20452;-83
2022/02/19 13:01:30;;;;;;;6.27;2.30;;;25.90;38.00;;;;;;4993868;28;20425;-83
2022/02/19 13:03:58;;;;;;;8.47;2.07;;;26.40;37.00;;;;;;4999519;28;20899;-81
2022/02/19 13:06:28;;;;;;;6.47;2.27;;;26.80;36.80;;;;;;4992044;28;20436;-81